TimeEDT,TemperatureF,Dew PointF,Humidity,Sea Level PressureIn,VisibilityMPH,Wind Direction,Wind SpeedMPH,Gust SpeedMPH,PrecipitationIn,Events,Conditions,WindDirDegrees,DateUTC
12:51 AM,73.0,53.1,49,30.05,10.0,North,5.8,-,N/A,,Scattered Clouds,10,2013-08-11 04:51:00
1:51 AM,73.0,52.0,48,30.06,10.0,NNW,6.9,-,N/A,,Scattered Clouds,330,2013-08-11 05:51:00
2:51 AM,72.0,52.0,49,30.07,10.0,NNW,5.8,-,N/A,,Scattered Clouds,330,2013-08-11 06:51:00
3:51 AM,69.1,54.0,58,30.08,10.0,NNE,4.6,-,N/A,,Partly Cloudy,20,2013-08-11 07:51:00
4:51 AM,69.1,54.0,58,30.09,10.0,Calm,Calm,-,N/A,,Scattered Clouds,0,2013-08-11 08:51:00
5:51 AM,68.0,54.0,61,30.10,10.0,NNW,3.5,-,N/A,,Scattered Clouds,340,2013-08-11 09:51:00
6:51 AM,66.9,53.1,61,30.12,10.0,ENE,8.1,-,N/A,,Scattered Clouds,70,2013-08-11 10:51:00
7:51 AM,68.0,50.0,52,30.12,10.0,NE,6.9,-,N/A,,Scattered Clouds,40,2013-08-11 11:51:00
8:51 AM,71.1,48.0,44,30.12,10.0,NE,4.6,-,N/A,,Partly Cloudy,50,2013-08-11 12:51:00
9:51 AM,72.0,48.9,44,30.12,10.0,East,4.6,-,N/A,,Partly Cloudy,100,2013-08-11 13:51:00
10:51 AM,73.9,48.0,40,30.12,10.0,East,4.6,-,N/A,,Scattered Clouds,90,2013-08-11 14:51:00
11:51 AM,75.9,48.0,37,30.11,10.0,Variable,3.5,-,N/A,,Mostly Cloudy,0,2013-08-11 15:51:00
12:51 PM,77.0,48.0,36,30.09,10.0,WSW,4.6,-,N/A,,Mostly Cloudy,240,2013-08-11 16:51:00
1:51 PM,79.0,46.9,32,30.08,10.0,WSW,8.1,-,N/A,,Mostly Cloudy,250,2013-08-11 17:51:00
2:51 PM,79.0,51.1,38,30.06,10.0,NW,11.5,-,N/A,,Mostly Cloudy,320,2013-08-11 18:51:00
3:51 PM,81.0,51.1,35,30.04,10.0,Variable,4.6,-,N/A,,Mostly Cloudy,0,2013-08-11 19:51:00
4:51 PM,81.0,52.0,36,30.04,10.0,West,8.1,-,N/A,,Mostly Cloudy,260,2013-08-11 20:51:00
5:51 PM,81.0,54.0,39,30.03,10.0,SW,6.9,-,N/A,,Overcast,220,2013-08-11 21:51:00
6:14 PM,78.8,55.4,44,30.03,10.0,South,12.7,-,N/A,,Overcast,190,2013-08-11 22:14:00
6:51 PM,78.1,55.9,46,30.03,10.0,SSW,10.4,-,N/A,,Mostly Cloudy,200,2013-08-11 22:51:00
7:51 PM,75.9,57.9,54,30.03,10.0,South,10.4,-,N/A,,Overcast,170,2013-08-11 23:51:00
8:51 PM,75.0,57.9,55,30.04,10.0,South,13.8,-,N/A,,Overcast,190,2013-08-12 00:51:00
9:51 PM,73.9,60.1,62,30.05,10.0,South,12.7,-,N/A,,Mostly Cloudy,190,2013-08-12 01:51:00
10:51 PM,73.9,62.1,66,30.05,10.0,South,8.1,-,N/A,,Mostly Cloudy,170,2013-08-12 02:51:00
11:51 PM,73.9,64.0,71,30.04,10.0,SSW,6.9,-,N/A,,Mostly Cloudy,200,2013-08-12 03:51:00